sensor_id;sensor_type;location;lat;lon;timestamp;pressure;altitude;pressure_sealevel;temperature;humidity
36284;BME280;56085;48.910;9.478;2023-08-20T00:00:25;98472.41;;;29.65;48.45
36284;BME280;56085;48.910;9.478;2023-08-20T00:02:59;98471.81;;;29.61;48.72
36284;BME280;56085;48.910;9.478;2023-08-20T00:05:26;98477.31;;;29.50;49.10
36284;BME280;56085;48.910;9.478;2023-08-20T00:07:51;98473.16;;;29.51;48.66
36284;BME280;56085;48.910;9.478;2023-08-20T00:10:17;98472.84;;;29.34;49.34
36284;BME280;56085;48.910;9.478;2023-08-20T00:12:43;98476.69;;;29.46;49.05
36284;BME280;56085;48.910;9.478;2023-08-20T00:15:08;98472.75;;;29.43;49.44
36284;BME280;56085;48.910;9.478;2023-08-20T00:17:38;98474.97;;;29.63;48.87
36284;BME280;56085;48.910;9.478;2023-08-20T00:20:05;98476.44;;;29.58;48.82
36284;BME280;56085;48.910;9.478;2023-08-20T00:22:49;98476.72;;;29.60;48.34
36284;BME280;56085;48.910;9.478;2023-08-20T00:25:16;98480.34;;;29.61;48.61
36284;BME280;56085;48.910;9.478;2023-08-20T00:27:43;98487.44;;;29.66;48.45
36284;BME280;56085;48.910;9.478;2023-08-20T00:30:09;98485.75;;;29.59;48.09
36284;BME280;56085;48.910;9.478;2023-08-20T00:32:36;98486.75;;;29.56;47.94
36284;BME280;56085;48.910;9.478;2023-08-20T00:35:02;98490.56;;;29.53;48.25
36284;BME280;56085;48.910;9.478;2023-08-20T00:37:32;98485.03;;;29.49;48.15
36284;BME280;56085;48.910;9.478;2023-08-20T00:39:57;98486.31;;;29.48;48.49
36284;BME280;56085;48.910;9.478;2023-08-20T00:42:23;98493.53;;;29.34;48.64
36284;BME280;56085;48.910;9.478;2023-08-20T00:44:50;98498.66;;;29.21;49.28
36284;BME280;56085;48.910;9.478;2023-08-20T00:47:16;98499.50;;;29.12;49.64
36284;BME280;56085;48.910;9.478;2023-08-20T00:49:41;98505.94;;;29.70;49.46
36284;BME280;56085;48.910;9.478;2023-08-20T00:52:08;98504.03;;;29.19;49.51
36284;BME280;56085;48.910;9.478;2023-08-20T00:54:34;98510.91;;;29.12;49.88
36284;BME280;56085;48.910;9.478;2023-08-20T00:57:01;98504.19;;;29.49;49.11
36284;BME280;56085;48.910;9.478;2023-08-20T00:59:27;98513.28;;;29.38;48.70
36284;BME280;56085;48.910;9.478;2023-08-20T01:01:52;98511.56;;;29.55;49.02
36284;BME280;56085;48.910;9.478;2023-08-20T01:04:17;98503.25;;;29.67;48.48
36284;BME280;56085;48.910;9.478;2023-08-20T01:07:17;98502.88;;;30.13;48.12
36284;BME280;56085;48.910;9.478;2023-08-20T01:09:50;98503.16;;;30.00;47.50
36284;BME280;56085;48.910;9.478;2023-08-20T01:12:22;98504.13;;;29.97;47.43
36284;BME280;56085;48.910;9.478;2023-08-20T01:14:48;98504.13;;;29.82;47.78
36284;BME280;56085;48.910;9.478;2023-08-20T01:17:13;98507.50;;;29.71;48.13
36284;BME280;56085;48.910;9.478;2023-08-20T01:19:38;98511.88;;;29.57;48.20
36284;BME280;56085;48.910;9.478;2023-08-20T01:22:15;98504.16;;;29.73;47.98
36284;BME280;56085;48.910;9.478;2023-08-20T01:27:31;98508.38;;;30.02;47.71
36284;BME280;56085;48.910;9.478;2023-08-20T01:30:01;98510.84;;;29.70;47.61
36284;BME280;56085;48.910;9.478;2023-08-20T01:32:28;98508.97;;;29.67;48.09
36284;BME280;56085;48.910;9.478;2023-08-20T01:34:54;98506.06;;;29.76;47.92
36284;BME280;56085;48.910;9.478;2023-08-20T01:37:20;98507.69;;;29.68;47.99
36284;BME280;56085;48.910;9.478;2023-08-20T01:39:45;98507.38;;;29.66;48.32
36284;BME280;56085;48.910;9.478;2023-08-20T01:42:11;98505.59;;;29.53;49.09
36284;BME280;56085;48.910;9.478;2023-08-20T01:44:36;98508.44;;;29.53;48.91
36284;BME280;56085;48.910;9.478;2023-08-20T01:47:01;98504.59;;;29.56;49.31
36284;BME280;56085;48.910;9.478;2023-08-20T01:49:27;98506.00;;;29.61;49.16
36284;BME280;56085;48.910;9.478;2023-08-20T01:51:52;98504.19;;;29.49;49.37
36284;BME280;56085;48.910;9.478;2023-08-20T01:54:17;98505.97;;;29.46;49.24
36284;BME280;56085;48.910;9.478;2023-08-20T01:56:42;98500.53;;;29.48;49.43
36284;BME280;56085;48.910;9.478;2023-08-20T01:59:08;98495.78;;;29.54;49.14
36284;BME280;56085;48.910;9.478;2023-08-20T02:01:33;98500.63;;;29.63;49.03
36284;BME280;56085;48.910;9.478;2023-08-20T02:03:59;98505.91;;;29.31;49.43
36284;BME280;56085;48.910;9.478;2023-08-20T02:06:24;98507.50;;;29.32;49.67
36284;BME280;56085;48.910;9.478;2023-08-20T02:08:50;98506.41;;;29.30;49.78
36284;BME280;56085;48.910;9.478;2023-08-20T02:11:15;98508.81;;;29.22;49.80
36284;BME280;56085;48.910;9.478;2023-08-20T02:13:40;98503.53;;;29.30;49.59
36284;BME280;56085;48.910;9.478;2023-08-20T02:16:05;98507.00;;;29.34;49.61
36284;BME280;56085;48.910;9.478;2023-08-20T02:18:32;98507.16;;;29.30;49.00
36284;BME280;56085;48.910;9.478;2023-08-20T02:20:57;98510.91;;;29.36;48.93
36284;BME280;56085;48.910;9.478;2023-08-20T02:23:23;98522.22;;;29.21;48.67
36284;BME280;56085;48.910;9.478;2023-08-20T02:25:48;98522.56;;;29.14;49.06
36284;BME280;56085;48.910;9.478;2023-08-20T02:28:14;98519.22;;;28.92;49.45
36284;BME280;56085;48.910;9.478;2023-08-20T02:30:44;98525.69;;;28.92;50.13
36284;BME280;56085;48.910;9.478;2023-08-20T02:33:09;98522.09;;;28.82;49.87
36284;BME280;56085;48.910;9.478;2023-08-20T02:35:38;98527.84;;;28.73;50.25
36284;BME280;56085;48.910;9.478;2023-08-20T02:38:04;98520.53;;;28.81;50.60
36284;BME280;56085;48.910;9.478;2023-08-20T02:40:30;98526.66;;;28.89;50.46
36284;BME280;56085;48.910;9.478;2023-08-20T02:42:55;98531.97;;;29.05;49.73
36284;BME280;56085;48.910;9.478;2023-08-20T02:45:21;98533.19;;;28.80;50.33
36284;BME280;56085;48.910;9.478;2023-08-20T02:47:46;98527.19;;;28.78;49.92
36284;BME280;56085;48.910;9.478;2023-08-20T02:50:11;98526.66;;;28.89;49.89
36284;BME280;56085;48.910;9.478;2023-08-20T02:52:36;98518.22;;;29.04;49.46
36284;BME280;56085;48.910;9.478;2023-08-20T02:55:02;98516.94;;;29.05;49.72
36284;BME280;56085;48.910;9.478;2023-08-20T02:57:29;98509.72;;;29.19;48.85
36284;BME280;56085;48.910;9.478;2023-08-20T02:59:55;98502.28;;;29.21;48.51
36284;BME280;56085;48.910;9.478;2023-08-20T03:02:20;98494.13;;;29.14;48.85
36284;BME280;56085;48.910;9.478;2023-08-20T03:04:45;98497.31;;;29.07;48.82
36284;BME280;56085;48.910;9.478;2023-08-20T03:07:10;98490.91;;;29.21;48.92
36284;BME280;56085;48.910;9.478;2023-08-20T03:09:36;98490.28;;;29.17;48.59
36284;BME280;56085;48.910;9.478;2023-08-20T03:12:01;98496.78;;;29.18;48.66
36284;BME280;56085;48.910;9.478;2023-08-20T03:14:26;98489.09;;;29.09;49.26
36284;BME280;56085;48.910;9.478;2023-08-20T03:16:51;98485.44;;;29.08;48.74
36284;BME280;56085;48.910;9.478;2023-08-20T03:19:17;98480.84;;;29.11;49.07
36284;BME280;56085;48.910;9.478;2023-08-20T03:21:43;98478.97;;;29.08;48.59
36284;BME280;56085;48.910;9.478;2023-08-20T03:24:08;98478.97;;;29.08;48.79
36284;BME280;56085;48.910;9.478;2023-08-20T03:26:33;98481.28;;;29.19;48.42
36284;BME280;56085;48.910;9.478;2023-08-20T03:28:59;98473.03;;;29.21;47.97
36284;BME280;56085;48.910;9.478;2023-08-20T03:31:25;98474.19;;;29.14;48.05
36284;BME280;56085;48.910;9.478;2023-08-20T03:33:50;98484.59;;;29.17;48.48
36284;BME280;56085;48.910;9.478;2023-08-20T03:36:15;98480.13;;;28.59;49.89
36284;BME280;56085;48.910;9.478;2023-08-20T03:38:41;98482.97;;;28.68;50.22
36284;BME280;56085;48.910;9.478;2023-08-20T03:41:06;98489.31;;;28.63;50.50
36284;BME280;56085;48.910;9.478;2023-08-20T03:43:31;98489.19;;;28.48;50.67
36284;BME280;56085;48.910;9.478;2023-08-20T03:45:56;98490.25;;;28.60;50.42
36284;BME280;56085;48.910;9.478;2023-08-20T03:48:22;98498.16;;;28.55;50.34
36284;BME280;56085;48.910;9.478;2023-08-20T03:50:47;98512.22;;;28.68;49.50
36284;BME280;56085;48.910;9.478;2023-08-20T03:53:12;98507.97;;;28.54;49.42
36284;BME280;56085;48.910;9.478;2023-08-20T03:55:38;98524.09;;;28.48;49.26
36284;BME280;56085;48.910;9.478;2023-08-20T03:58:03;98522.06;;;28.39;49.30
36284;BME280;56085;48.910;9.478;2023-08-20T04:00:28;98527.78;;;28.21;49.20
36284;BME280;56085;48.910;9.478;2023-08-20T04:02:53;98524.19;;;28.11;49.52
36284;BME280;56085;48.910;9.478;2023-08-20T04:05:19;98524.94;;;28.30;49.27
36284;BME280;56085;48.910;9.478;2023-08-20T04:07:44;98528.25;;;28.38;48.96
36284;BME280;56085;48.910;9.478;2023-08-20T04:10:10;98520.97;;;28.37;49.12
36284;BME280;56085;48.910;9.478;2023-08-20T04:12:35;98517.97;;;28.41;49.14
36284;BME280;56085;48.910;9.478;2023-08-20T04:15:01;98511.31;;;28.44;49.18
36284;BME280;56085;48.910;9.478;2023-08-20T04:17:26;98524.13;;;28.39;49.49
36284;BME280;56085;48.910;9.478;2023-08-20T04:19:51;98527.75;;;28.39;49.72
36284;BME280;56085;48.910;9.478;2023-08-20T04:22:17;98525.72;;;28.31;49.89
36284;BME280;56085;48.910;9.478;2023-08-20T04:24:42;98526.66;;;28.37;49.96
36284;BME280;56085;48.910;9.478;2023-08-20T04:27:07;98522.09;;;28.30;49.89
36284;BME280;56085;48.910;9.478;2023-08-20T04:29:33;98523.22;;;28.33;49.92
36284;BME280;56085;48.910;9.478;2023-08-20T04:31:58;98531.41;;;28.31;50.40
36284;BME280;56085;48.910;9.478;2023-08-20T04:34:23;98536.94;;;28.25;50.67
36284;BME280;56085;48.910;9.478;2023-08-20T04:36:49;98536.34;;;28.12;51.05
36284;BME280;56085;48.910;9.478;2023-08-20T04:39:14;98534.47;;;27.99;51.54
36284;BME280;56085;48.910;9.478;2023-08-20T04:41:39;98532.66;;;28.39;50.48
36284;BME280;56085;48.910;9.478;2023-08-20T04:44:05;98532.66;;;28.39;50.29
36284;BME280;56085;48.910;9.478;2023-08-20T04:46:30;98528.38;;;28.44;50.47
36284;BME280;56085;48.910;9.478;2023-08-20T04:48:58;98524.28;;;28.45;50.02
36284;BME280;56085;48.910;9.478;2023-08-20T04:51:23;98516.06;;;28.47;50.15
36284;BME280;56085;48.910;9.478;2023-08-20T04:53:48;98517.09;;;28.68;49.57
36284;BME280;56085;48.910;9.478;2023-08-20T04:56:13;98515.97;;;28.75;49.52
36284;BME280;56085;48.910;9.478;2023-08-20T04:58:39;98525.28;;;28.75;49.63
36284;BME280;56085;48.910;9.478;2023-08-20T05:01:04;98527.72;;;28.58;50.06
36284;BME280;56085;48.910;9.478;2023-08-20T05:03:31;98526.00;;;28.61;50.19
36284;BME280;56085;48.910;9.478;2023-08-20T05:05:56;98528.81;;;28.51;49.70
36284;BME280;56085;48.910;9.478;2023-08-20T05:08:21;98526.44;;;28.68;48.98
36284;BME280;56085;48.910;9.478;2023-08-20T05:10:47;98527.41;;;28.65;48.88
36284;BME280;56085;48.910;9.478;2023-08-20T05:13:14;98525.84;;;28.55;49.06
36284;BME280;56085;48.910;9.478;2023-08-20T05:15:39;98536.72;;;28.56;49.24
36284;BME280;56085;48.910;9.478;2023-08-20T05:18:04;98538.84;;;28.89;48.56
36284;BME280;56085;48.910;9.478;2023-08-20T05:20:30;98536.13;;;28.95;48.57
36284;BME280;56085;48.910;9.478;2023-08-20T05:22:55;98540.75;;;28.83;49.11
36284;BME280;56085;48.910;9.478;2023-08-20T05:25:20;98546.53;;;28.98;49.19
36284;BME280;56085;48.910;9.478;2023-08-20T05:27:46;98537.44;;;29.18;48.63
36284;BME280;56085;48.910;9.478;2023-08-20T05:30:11;98545.09;;;29.36;48.29
36284;BME280;56085;48.910;9.478;2023-08-20T05:32:37;98545.53;;;29.44;47.88
36284;BME280;56085;48.910;9.478;2023-08-20T05:35:03;98542.84;;;29.40;48.50
36284;BME280;56085;48.910;9.478;2023-08-20T05:37:29;98554.00;;;29.53;48.35
36284;BME280;56085;48.910;9.478;2023-08-20T05:39:54;98550.56;;;29.73;48.09
36284;BME280;56085;48.910;9.478;2023-08-20T05:42:20;98550.53;;;29.98;47.23
36284;BME280;56085;48.910;9.478;2023-08-20T05:44:45;98553.19;;;30.01;47.03
36284;BME280;56085;48.910;9.478;2023-08-20T05:47:10;98556.34;;;30.03;47.37
36284;BME280;56085;48.910;9.478;2023-08-20T05:49:36;98565.72;;;30.19;46.81
36284;BME280;56085;48.910;9.478;2023-08-20T05:52:01;98565.81;;;30.24;46.56
36284;BME280;56085;48.910;9.478;2023-08-20T05:54:26;98556.88;;;30.32;46.59
36284;BME280;56085;48.910;9.478;2023-08-20T05:56:51;98541.44;;;30.38;46.30
36284;BME280;56085;48.910;9.478;2023-08-20T05:59:17;98527.88;;;30.48;46.16
36284;BME280;56085;48.910;9.478;2023-08-20T06:01:42;98529.25;;;30.38;46.04
36284;BME280;56085;48.910;9.478;2023-08-20T06:04:08;98542.13;;;30.63;45.97
36284;BME280;56085;48.910;9.478;2023-08-20T06:06:34;98540.56;;;30.62;45.78
36284;BME280;56085;48.910;9.478;2023-08-20T06:08:59;98544.59;;;30.40;46.54
36284;BME280;56085;48.910;9.478;2023-08-20T06:11:25;98552.09;;;30.53;46.75
36284;BME280;56085;48.910;9.478;2023-08-20T06:13:50;98555.59;;;30.33;47.39
36284;BME280;56085;48.910;9.478;2023-08-20T06:16:15;98551.38;;;30.43;47.41
36284;BME280;56085;48.910;9.478;2023-08-20T06:18:41;98553.25;;;30.46;47.86
36284;BME280;56085;48.910;9.478;2023-08-20T06:21:06;98562.22;;;30.54;47.41
36284;BME280;56085;48.910;9.478;2023-08-20T06:23:31;98569.09;;;30.47;47.43
36284;BME280;56085;48.910;9.478;2023-08-20T06:25:56;98566.84;;;30.51;47.36
36284;BME280;56085;48.910;9.478;2023-08-20T06:28:22;98567.69;;;30.72;47.17
36284;BME280;56085;48.910;9.478;2023-08-20T06:30:47;98562.88;;;30.93;46.90
36284;BME280;56085;48.910;9.478;2023-08-20T06:33:12;98571.34;;;31.03;46.60
36284;BME280;56085;48.910;9.478;2023-08-20T06:35:38;98573.41;;;31.02;46.49
36284;BME280;56085;48.910;9.478;2023-08-20T06:38:03;98579.91;;;31.03;46.72
36284;BME280;56085;48.910;9.478;2023-08-20T06:40:30;98586.88;;;31.17;47.12
36284;BME280;56085;48.910;9.478;2023-08-20T06:42:55;98593.72;;;31.25;46.73
36284;BME280;56085;48.910;9.478;2023-08-20T06:45:20;98595.84;;;31.45;46.37
36284;BME280;56085;48.910;9.478;2023-08-20T06:47:46;98598.91;;;31.56;46.29
36284;BME280;56085;48.910;9.478;2023-08-20T06:50:11;98595.44;;;31.52;46.28
36284;BME280;56085;48.910;9.478;2023-08-20T06:52:37;98591.19;;;31.62;46.32
36284;BME280;56085;48.910;9.478;2023-08-20T06:55:02;98597.25;;;31.70;46.68
36284;BME280;56085;48.910;9.478;2023-08-20T06:57:27;98595.69;;;31.90;46.25
36284;BME280;56085;48.910;9.478;2023-08-20T06:59:53;98594.63;;;31.87;46.00
36284;BME280;56085;48.910;9.478;2023-08-20T07:02:18;98594.03;;;32.03;46.07
36284;BME280;56085;48.910;9.478;2023-08-20T07:04:43;98593.00;;;32.07;45.88
36284;BME280;56085;48.910;9.478;2023-08-20T07:07:08;98590.38;;;32.03;45.71
36284;BME280;56085;48.910;9.478;2023-08-20T07:09:34;98594.69;;;32.13;45.28
36284;BME280;56085;48.910;9.478;2023-08-20T07:12:01;98599.25;;;32.26;45.37
36284;BME280;56085;48.910;9.478;2023-08-20T07:14:27;98598.78;;;32.33;44.83
36284;BME280;56085;48.910;9.478;2023-08-20T07:16:52;98595.84;;;32.22;44.96
36284;BME280;56085;48.910;9.478;2023-08-20T07:19:17;98597.50;;;32.34;45.24
36284;BME280;56085;48.910;9.478;2023-08-20T07:21:43;98595.28;;;32.44;44.83
36284;BME280;56085;48.910;9.478;2023-08-20T07:24:08;98602.47;;;32.33;45.14
36284;BME280;56085;48.910;9.478;2023-08-20T07:26:33;98607.78;;;32.20;45.17
36284;BME280;56085;48.910;9.478;2023-08-20T07:28:58;98606.22;;;32.45;45.18
36284;BME280;56085;48.910;9.478;2023-08-20T07:31:28;98604.25;;;32.57;44.60
36284;BME280;56085;48.910;9.478;2023-08-20T07:33:55;98610.66;;;32.46;44.36
36284;BME280;56085;48.910;9.478;2023-08-20T07:36:22;98613.16;;;32.39;44.89
36284;BME280;56085;48.910;9.478;2023-08-20T07:38:48;98611.03;;;32.60;44.89
36284;BME280;56085;48.910;9.478;2023-08-20T07:41:14;98623.00;;;32.84;44.54
36284;BME280;56085;48.910;9.478;2023-08-20T07:43:40;98615.34;;;32.70;43.99
36284;BME280;56085;48.910;9.478;2023-08-20T07:46:07;98618.13;;;32.91;43.79
36284;BME280;56085;48.910;9.478;2023-08-20T07:48:34;98622.97;;;32.79;43.58
36284;BME280;56085;48.910;9.478;2023-08-20T07:51:00;98627.84;;;33.04;43.77
36284;BME280;56085;48.910;9.478;2023-08-20T07:53:25;98624.53;;;33.12;43.15
36284;BME280;56085;48.910;9.478;2023-08-20T07:55:51;98622.06;;;33.25;43.45
36284;BME280;56085;48.910;9.478;2023-08-20T07:58:16;98617.72;;;33.35;43.46
36284;BME280;56085;48.910;9.478;2023-08-20T08:00:42;98623.53;;;33.52;42.68
36284;BME280;56085;48.910;9.478;2023-08-20T08:03:08;98621.69;;;33.49;42.79
36284;BME280;56085;48.910;9.478;2023-08-20T08:05:35;98621.00;;;33.66;42.31
36284;BME280;56085;48.910;9.478;2023-08-20T08:08:00;98618.91;;;33.61;42.17
36284;BME280;56085;48.910;9.478;2023-08-20T08:10:25;98619.44;;;33.65;42.03
36284;BME280;56085;48.910;9.478;2023-08-20T08:12:50;98618.91;;;33.61;41.94
36284;BME280;56085;48.910;9.478;2023-08-20T08:15:16;98617.25;;;33.91;41.39
36284;BME280;56085;48.910;9.478;2023-08-20T08:17:42;98626.13;;;33.99;41.92
36284;BME280;56085;48.910;9.478;2023-08-20T08:20:07;98627.59;;;34.32;41.42
36284;BME280;56085;48.910;9.478;2023-08-20T08:22:33;98630.94;;;34.25;40.71
36284;BME280;56085;48.910;9.478;2023-08-20T08:24:58;98635.72;;;34.62;40.82
36284;BME280;56085;48.910;9.478;2023-08-20T08:27:23;98626.66;;;34.81;40.65
36284;BME280;56085;48.910;9.478;2023-08-20T08:29:50;98632.66;;;34.94;40.59
36284;BME280;56085;48.910;9.478;2023-08-20T08:32:16;98628.22;;;34.93;40.46
36284;BME280;56085;48.910;9.478;2023-08-20T08:34:41;98631.88;;;34.88;40.43
36284;BME280;56085;48.910;9.478;2023-08-20T08:37:06;98627.72;;;34.94;39.96
36284;BME280;56085;48.910;9.478;2023-08-20T08:39:32;98623.81;;;35.03;40.20
36284;BME280;56085;48.910;9.478;2023-08-20T08:42:01;98625.38;;;35.33;39.84
36284;BME280;56085;48.910;9.478;2023-08-20T08:44:33;98617.50;;;35.16;39.14
36284;BME280;56085;48.910;9.478;2023-08-20T08:46:59;98625.88;;;35.25;39.63
36284;BME280;56085;48.910;9.478;2023-08-20T08:49:25;98622.75;;;35.40;39.36
36284;BME280;56085;48.910;9.478;2023-08-20T08:51:51;98623.00;;;35.08;39.07
36284;BME280;56085;48.910;9.478;2023-08-20T08:54:20;98622.97;;;35.42;38.93
36284;BME280;56085;48.910;9.478;2023-08-20T08:56:45;98631.03;;;35.67;38.22
36284;BME280;56085;48.910;9.478;2023-08-20T08:59:10;98626.78;;;35.96;38.43
36284;BME280;56085;48.910;9.478;2023-08-20T09:01:38;98623.16;;;35.78;38.44
36284;BME280;56085;48.910;9.478;2023-08-20T09:04:04;98627.72;;;35.40;38.38
36284;BME280;56085;48.910;9.478;2023-08-20T09:06:44;98628.59;;;35.99;37.65
36284;BME280;56085;48.910;9.478;2023-08-20T09:09:10;98625.78;;;35.82;38.54
36284;BME280;56085;48.910;9.478;2023-08-20T09:11:35;98632.88;;;35.81;38.26
36284;BME280;56085;48.910;9.478;2023-08-20T09:14:00;98631.06;;;35.50;37.74
36284;BME280;56085;48.910;9.478;2023-08-20T09:16:29;98633.97;;;35.44;38.11
36284;BME280;56085;48.910;9.478;2023-08-20T09:18:59;98628.41;;;35.86;38.39
36284;BME280;56085;48.910;9.478;2023-08-20T09:21:28;98625.38;;;36.20;37.65
36284;BME280;56085;48.910;9.478;2023-08-20T09:23:55;98623.50;;;36.28;37.33
36284;BME280;56085;48.910;9.478;2023-08-20T09:26:21;98632.59;;;36.43;37.27
36284;BME280;56085;48.910;9.478;2023-08-20T09:28:46;98631.53;;;36.46;36.64
36284;BME280;56085;48.910;9.478;2023-08-20T09:31:13;98634.22;;;36.27;36.93
36284;BME280;56085;48.910;9.478;2023-08-20T09:33:51;98626.97;;;36.62;36.01
36284;BME280;56085;48.910;9.478;2023-08-20T09:36:17;98621.19;;;36.62;36.04
36284;BME280;56085;48.910;9.478;2023-08-20T09:38:43;98624.38;;;37.00;35.77
36284;BME280;56085;48.910;9.478;2023-08-20T09:41:08;98629.28;;;37.06;36.02
36284;BME280;56085;48.910;9.478;2023-08-20T09:43:37;98627.41;;;37.44;35.46
36284;BME280;56085;48.910;9.478;2023-08-20T09:46:04;98631.00;;;36.90;35.74
36284;BME280;56085;48.910;9.478;2023-08-20T09:48:33;98640.00;;;37.11;35.51
36284;BME280;56085;48.910;9.478;2023-08-20T09:51:04;98627.16;;;37.42;34.46
36284;BME280;56085;48.910;9.478;2023-08-20T09:53:35;98631.06;;;37.94;34.32
36284;BME280;56085;48.910;9.478;2023-08-20T09:56:27;98620.25;;;38.19;33.50
36284;BME280;56085;48.910;9.478;2023-08-20T09:58:54;98615.38;;;38.33;32.97
36284;BME280;56085;48.910;9.478;2023-08-20T10:01:20;98619.94;;;38.42;33.08
36284;BME280;56085;48.910;9.478;2023-08-20T10:03:46;98614.47;;;38.57;32.99
36284;BME280;56085;48.910;9.478;2023-08-20T10:06:12;98612.59;;;38.79;32.69
36284;BME280;56085;48.910;9.478;2023-08-20T10:08:38;98607.91;;;38.76;32.36
36284;BME280;56085;48.910;9.478;2023-08-20T10:11:03;98609.91;;;38.81;32.46
36284;BME280;56085;48.910;9.478;2023-08-20T10:13:28;98608.56;;;38.69;32.18
36284;BME280;56085;48.910;9.478;2023-08-20T10:15:54;98607.88;;;38.95;31.98
36284;BME280;56085;48.910;9.478;2023-08-20T10:18:21;98608.22;;;39.05;31.90
36284;BME280;56085;48.910;9.478;2023-08-20T10:20:50;98608.19;;;39.24;31.84
36284;BME280;56085;48.910;9.478;2023-08-20T10:23:20;98604.00;;;39.06;31.22
36284;BME280;56085;48.910;9.478;2023-08-20T10:25:47;98607.06;;;38.43;31.79
36284;BME280;56085;48.910;9.478;2023-08-20T10:28:24;98606.47;;;38.83;31.41
36284;BME280;56085;48.910;9.478;2023-08-20T10:31:10;98604.50;;;39.23;31.10
36284;BME280;56085;48.910;9.478;2023-08-20T10:33:49;98605.34;;;39.64;31.54
36284;BME280;56085;48.910;9.478;2023-08-20T10:36:17;98604.97;;;39.41;30.56
36284;BME280;56085;48.910;9.478;2023-08-20T10:38:45;98602.69;;;39.79;30.64
36284;BME280;56085;48.910;9.478;2023-08-20T10:41:11;98608.78;;;40.03;30.57
36284;BME280;56085;48.910;9.478;2023-08-20T10:43:40;98602.97;;;39.89;30.03
36284;BME280;56085;48.910;9.478;2023-08-20T10:48:41;98598.50;;;40.28;29.72
36284;BME280;56085;48.910;9.478;2023-08-20T10:51:09;98594.78;;;40.41;29.57
36284;BME280;56085;48.910;9.478;2023-08-20T10:53:34;98600.84;;;40.64;29.24
36284;BME280;56085;48.910;9.478;2023-08-20T10:56:15;98597.91;;;40.99;28.18
36284;BME280;56085;48.910;9.478;2023-08-20T10:58:46;98600.28;;;40.66;28.09
36284;BME280;56085;48.910;9.478;2023-08-20T11:01:16;98604.22;;;40.90;28.21
36284;BME280;56085;48.910;9.478;2023-08-20T11:03:46;98604.13;;;41.03;28.70
36284;BME280;56085;48.910;9.478;2023-08-20T11:06:12;98597.53;;;40.60;28.50
36284;BME280;56085;48.910;9.478;2023-08-20T11:08:38;98603.63;;;40.22;28.27
36284;BME280;56085;48.910;9.478;2023-08-20T11:11:05;98592.56;;;40.47;28.22
36284;BME280;56085;48.910;9.478;2023-08-20T11:13:35;98591.09;;;40.54;28.55
36284;BME280;56085;48.910;9.478;2023-08-20T11:16:04;98594.31;;;40.51;28.59
36284;BME280;56085;48.910;9.478;2023-08-20T11:18:32;98587.00;;;41.13;28.18
36284;BME280;56085;48.910;9.478;2023-08-20T11:20:59;98596.13;;;41.38;27.37
36284;BME280;56085;48.910;9.478;2023-08-20T11:23:24;98593.09;;;41.51;27.08
36284;BME280;56085;48.910;9.478;2023-08-20T11:25:50;98594.03;;;40.96;26.74
36284;BME280;56085;48.910;9.478;2023-08-20T11:28:15;98596.00;;;41.23;26.29
36284;BME280;56085;48.910;9.478;2023-08-20T11:30:41;98587.63;;;41.19;26.34
36284;BME280;56085;48.910;9.478;2023-08-20T11:33:07;98588.34;;;41.62;26.25
36284;BME280;56085;48.910;9.478;2023-08-20T11:35:32;98581.53;;;41.88;26.08
36284;BME280;56085;48.910;9.478;2023-08-20T11:37:58;98584.72;;;42.06;26.10
36284;BME280;56085;48.910;9.478;2023-08-20T11:40:24;98582.97;;;42.02;25.81
36284;BME280;56085;48.910;9.478;2023-08-20T11:42:49;98580.56;;;42.30;25.64
36284;BME280;56085;48.910;9.478;2023-08-20T11:45:15;98575.16;;;42.34;24.89
36284;BME280;56085;48.910;9.478;2023-08-20T11:47:41;98576.75;;;42.50;24.82
36284;BME280;56085;48.910;9.478;2023-08-20T11:50:07;98577.16;;;42.47;24.75
36284;BME280;56085;48.910;9.478;2023-08-20T11:52:33;98572.16;;;42.63;24.47
36284;BME280;56085;48.910;9.478;2023-08-20T11:54:59;98569.28;;;42.94;24.57
36284;BME280;56085;48.910;9.478;2023-08-20T11:57:31;98559.81;;;43.09;24.58
36284;BME280;56085;48.910;9.478;2023-08-20T12:00:01;98566.75;;;42.75;23.87
36284;BME280;56085;48.910;9.478;2023-08-20T12:02:29;98568.72;;;43.11;23.62
36284;BME280;56085;48.910;9.478;2023-08-20T12:04:57;98567.34;;;43.27;23.59
36284;BME280;56085;48.910;9.478;2023-08-20T12:07:27;98562.84;;;43.41;23.83
36284;BME280;56085;48.910;9.478;2023-08-20T12:09:56;98563.97;;;43.77;23.78
36284;BME280;56085;48.910;9.478;2023-08-20T12:12:22;98555.50;;;43.48;23.39
36284;BME280;56085;48.910;9.478;2023-08-20T12:14:48;98567.88;;;42.64;23.14
36284;BME280;56085;48.910;9.478;2023-08-20T12:17:17;98561.53;;;43.12;22.48
36284;BME280;56085;48.910;9.478;2023-08-20T12:19:43;98550.84;;;42.99;22.55
36284;BME280;56085;48.910;9.478;2023-08-20T12:22:09;98552.22;;;43.21;22.65
36284;BME280;56085;48.910;9.478;2023-08-20T12:24:34;98555.13;;;43.13;22.82
36284;BME280;56085;48.910;9.478;2023-08-20T12:26:59;98554.75;;;43.01;22.61
36284;BME280;56085;48.910;9.478;2023-08-20T12:29:25;98551.63;;;42.99;22.55
36284;BME280;56085;48.910;9.478;2023-08-20T12:31:50;98548.72;;;42.92;21.77
36284;BME280;56085;48.910;9.478;2023-08-20T12:34:15;98546.75;;;43.48;22.00
36284;BME280;56085;48.910;9.478;2023-08-20T12:36:40;98545.34;;;43.65;22.09
36284;BME280;56085;48.910;9.478;2023-08-20T12:39:06;98541.06;;;43.73;21.25
36284;BME280;56085;48.910;9.478;2023-08-20T12:41:32;98544.44;;;44.03;20.53
36284;BME280;56085;48.910;9.478;2023-08-20T12:43:57;98537.75;;;43.85;20.78
36284;BME280;56085;48.910;9.478;2023-08-20T12:46:23;98538.81;;;44.05;21.30
36284;BME280;56085;48.910;9.478;2023-08-20T12:48:48;98532.91;;;43.80;20.51
36284;BME280;56085;48.910;9.478;2023-08-20T12:51:13;98533.81;;;43.98;20.47
36284;BME280;56085;48.910;9.478;2023-08-20T12:53:42;98535.13;;;44.04;20.11
36284;BME280;56085;48.910;9.478;2023-08-20T12:56:08;98530.25;;;44.48;20.09
36284;BME280;56085;48.910;9.478;2023-08-20T12:58:33;98530.69;;;44.03;19.91
36284;BME280;56085;48.910;9.478;2023-08-20T13:00:58;98523.88;;;44.01;20.20